Green Valley, Arizona
Current Conditions -  °F | °C
As of 12:53 AM on Friday 24 Oct 2014 (Local Time) from KTUS Reporting Station
Clear Clear  
Wind Chill: 66°   Ceiling: Unl
Heat Index: 66°   Visibility: 10mi
Dew Point: 46°   Wind: 9mph
Humidity: 48%   Direction: 150°SSE
Pressure: 30.1"   Gusts: NA
Location:  31.91°N, 110.98°W
Report Text: KTUS 240753Z 15008KT 10SM CLR 19/08 A3010 RMK AO2 SLP152 T01890078
Loading
Personal Weather Stations






























Interactive Weather Map
Tropical Storm Tracking
New forecast layout! Learn more

10-Day Weather Forecast

Advertisements
Track Severe Weather on mobile